Alkabo, North Dakota
Current Conditions -  °F | °C
As of 5:52 AM on Sunday 25 Jan 2015 (Local Time) from KISN Reporting Station
Overcast Overcast  
Wind Chill: -5°   Ceiling: 1300
Heat Index:   Visibility: 10mi
Dew Point: -2°   Wind: 16mph
Humidity: 82%   Direction: 350°N
Pressure: 29.99"   Gusts: NA
Location:  48.5901°N, 103.922°W
Report Text: KISN 251152Z AUTO 35014KT 10SM OVC013 01/M02 A2999 RMK AO2 SLP174 70006 T00111017 10028 20011 51004
Loading
Personal Weather Stations






























Interactive Weather Map New forecast layout! Learn more

10-Day Weather Forecast

Advertisements
Track Severe Weather on mobile